createdAt,value
2018-12-21T00:04:54.094Z,81.50
2018-12-21T00:09:57.390Z,81.85
2018-12-21T00:15:00.767Z,81.55
2018-12-21T00:20:04.951Z,81.50
2018-12-21T00:25:08.871Z,81.67
2018-12-21T00:35:41.342Z,80.88
2018-12-21T00:40:50.584Z,80.77
2018-12-21T00:51:20.135Z,79.86
2018-12-21T00:56:23.461Z,79.67
2018-12-21T01:01:28.838Z,80.45
2018-12-21T01:06:32.354Z,81.21
2018-12-21T01:11:35.827Z,82.02
2018-12-21T01:22:04.806Z,82.54
2018-12-21T01:27:07.921Z,83.18
2018-12-21T01:32:11.140Z,83.08
2018-12-21T01:37:14.245Z,83.17
2018-12-21T01:42:17.243Z,82.37
2018-12-21T01:47:20.261Z,82.53
2018-12-21T01:52:23.228Z,83.03
2018-12-21T01:57:26.189Z,83.17
2018-12-21T02:02:29.273Z,82.79
2018-12-21T02:07:32.368Z,83.15
2018-12-21T02:12:35.547Z,83.64
2018-12-21T02:17:38.512Z,83.71
2018-12-21T02:22:41.464Z,83.56
2018-12-21T02:27:44.442Z,84.03
2018-12-21T02:32:47.520Z,83.73
2018-12-21T02:37:51.004Z,84.26
2018-12-21T02:42:54.095Z,84.16
2018-12-21T02:47:57.073Z,84.36
2018-12-21T02:53:00.126Z,84.96
2018-12-21T02:58:03.422Z,85.79
2018-12-21T03:03:06.502Z,85.77
2018-12-21T03:13:27.687Z,86.66
2018-12-21T03:18:31.294Z,86.29
2018-12-21T03:23:35.287Z,86.10
2018-12-21T03:34:03.841Z,85.14
2018-12-21T03:39:08.185Z,84.93
2018-12-21T03:44:11.225Z,84.31
2018-12-21T03:56:58.510Z,85.54
2018-12-21T04:02:01.553Z,84.18
2018-12-21T04:07:04.729Z,83.81
2018-12-21T04:17:22.687Z,83.43
2018-12-21T04:22:34.005Z,83.04
2018-12-21T04:27:30.844Z,82.56
2018-12-21T04:32:33.810Z,83.00
2018-12-21T04:37:36.776Z,82.56
2018-12-21T04:42:39.740Z,82.57
2018-12-21T04:47:42.680Z,82.47
2018-12-21T04:58:04.142Z,82.03
2018-12-21T05:03:07.310Z,81.58
2018-12-21T05:08:10.957Z,81.47
2018-12-21T05:13:14.578Z,81.50
2018-12-21T05:18:18.390Z,81.13
2018-12-21T05:23:22.102Z,81.07
2018-12-21T05:28:25.503Z,80.89
2018-12-21T05:33:28.970Z,80.97
2018-12-21T05:38:32.292Z,80.34
2018-12-21T05:43:36.354Z,80.43
2018-12-21T05:49:00.699Z,80.67
2018-12-21T05:54:05.145Z,80.86
2018-12-21T05:59:09.506Z,80.55
2018-12-21T06:04:12.691Z,80.67
2018-12-21T06:09:16.115Z,80.28
2018-12-21T06:20:34.689Z,79.92
2018-12-21T06:31:10.292Z,78.87
2018-12-21T06:36:13.252Z,78.42
2018-12-21T06:41:16.241Z,77.87
2018-12-21T06:46:19.222Z,77.75
2018-12-21T06:51:22.258Z,77.74
2018-12-21T06:56:25.221Z,78.15
2018-12-21T07:01:28.512Z,78.33
2018-12-21T07:06:31.508Z,78.19
2018-12-21T07:11:34.515Z,77.96
2018-12-21T07:16:37.514Z,79.71
2018-12-21T07:21:40.508Z,80.61
2018-12-21T07:26:43.486Z,81.62
2018-12-21T07:31:46.631Z,82.50
2018-12-21T07:36:49.684Z,82.57
2018-12-21T07:41:52.656Z,83.40
2018-12-21T07:46:55.649Z,83.56
2018-12-21T07:51:58.880Z,83.77
2018-12-21T07:57:02.145Z,83.94
2018-12-21T08:02:05.649Z,83.28
2018-12-21T08:07:08.656Z,83.38
2018-12-21T08:12:11.636Z,83.20
2018-12-21T08:17:21.440Z,83.09
2018-12-21T08:27:44.255Z,82.39
2018-12-21T08:32:48.051Z,82.06
2018-12-21T08:37:53.303Z,82.03
2018-12-21T08:42:57.203Z,81.86
2018-12-21T08:48:00.857Z,82.09
2018-12-21T08:53:04.640Z,81.92
2018-12-21T08:58:07.933Z,82.26
2018-12-21T09:03:10.919Z,81.88
2018-12-21T09:08:14.001Z,82.48
2018-12-21T09:13:17.308Z,82.46
2018-12-21T09:18:20.403Z,82.76
2018-12-21T09:23:23.804Z,83.50
2018-12-21T09:28:27.004Z,83.73
2018-12-21T09:33:30.122Z,83.18
2018-12-21T09:38:33.236Z,83.38
2018-12-21T09:43:36.233Z,82.97
2018-12-21T09:48:39.324Z,83.65
2018-12-21T09:53:42.400Z,83.66
2018-12-21T09:58:45.493Z,83.06
2018-12-21T10:09:09.366Z,83.32
2018-12-21T10:14:20.798Z,83.12
2018-12-21T10:24:39.364Z,83.30
2018-12-21T10:29:42.332Z,83.94
2018-12-21T10:34:45.388Z,83.77
2018-12-21T10:39:48.334Z,83.67
2018-12-21T10:44:51.393Z,83.96
2018-12-21T10:49:54.439Z,83.70
2018-12-21T11:00:17.085Z,83.98
2018-12-21T11:10:40.238Z,83.91
2018-12-21T11:15:43.245Z,84.21
2018-12-21T11:20:46.657Z,84.52
2018-12-21T11:25:49.792Z,84.63
2018-12-21T11:30:52.823Z,84.34
2018-12-21T11:35:55.859Z,84.43
2018-12-21T11:40:58.885Z,84.75
2018-12-21T11:51:22.431Z,85.34
2018-12-21T11:56:26.985Z,85.07
2018-12-21T12:01:31.298Z,85.28
2018-12-21T12:06:40.332Z,86.17
2018-12-21T12:11:45.128Z,86.21
2018-12-21T12:16:49.814Z,85.90
2018-12-21T12:21:53.660Z,86.29
2018-12-21T12:27:06.202Z,86.27
2018-12-21T12:32:13.944Z,86.92
2018-12-21T12:53:48.418Z,87.30
2018-12-21T12:58:52.959Z,88.30
2018-12-21T13:03:59.259Z,88.39
2018-12-21T13:09:10.186Z,88.34
2018-12-21T13:14:16.632Z,89.26
2018-12-21T13:24:56.187Z,89.12
2018-12-21T18:09:10.224Z,89.01
2018-12-21T18:14:13.254Z,83.57
2018-12-21T18:19:16.675Z,83.94
2018-12-21T18:42:51.880Z,82.33
2018-12-21T18:47:55.140Z,83.21
2018-12-21T18:52:58.173Z,82.84
2018-12-21T18:58:01.319Z,82.17
2018-12-21T19:03:04.599Z,82.05
2018-12-21T19:08:07.583Z,82.95
2018-12-21T19:13:10.793Z,82.74
2018-12-21T19:18:13.985Z,83.74
2018-12-21T19:23:17.152Z,83.95
2018-12-21T19:28:20.177Z,83.54
2018-12-21T19:33:23.228Z,83.38
2018-12-21T19:38:26.283Z,83.16
2018-12-21T19:43:29.309Z,82.64
2018-12-21T19:48:32.357Z,82.58
2018-12-21T19:53:35.392Z,81.74
2018-12-21T19:58:38.394Z,81.66
2018-12-21T20:03:41.563Z,80.82
2018-12-21T20:08:44.569Z,80.79
2018-12-21T20:13:47.611Z,80.08
2018-12-21T20:18:50.718Z,80.11
2018-12-21T20:23:53.858Z,79.99
2018-12-21T20:28:56.962Z,80.54
2018-12-21T20:34:00.097Z,80.45
2018-12-21T20:39:08.913Z,80.50
2018-12-21T20:44:12.026Z,81.41
2018-12-21T20:49:15.056Z,81.53
2018-12-21T20:54:18.198Z,81.41
2018-12-21T20:59:23.484Z,81.21
2018-12-21T21:04:26.587Z,81.10
2018-12-21T21:09:29.665Z,80.85
2018-12-21T21:14:39.325Z,80.67
2018-12-21T21:19:42.333Z,81.97
2018-12-21T21:30:14.421Z,84.07
2018-12-21T21:35:17.465Z,85.37
2018-12-21T21:40:20.488Z,85.14
2018-12-21T21:50:48.189Z,83.45
2018-12-21T21:55:51.288Z,83.03
2018-12-21T22:00:54.323Z,84.19
2018-12-21T22:05:57.448Z,85.22
2018-12-21T22:11:02.072Z,86.58
2018-12-21T22:16:05.400Z,86.71
2018-12-21T22:21:08.400Z,86.08
2018-12-21T22:26:11.392Z,86.63
2018-12-21T22:36:39.021Z,86.67
2018-12-21T22:41:42.080Z,85.45
2018-12-21T22:46:45.132Z,85.10
2018-12-21T22:51:48.174Z,84.90
2018-12-21T22:56:51.241Z,84.27
2018-12-21T23:01:54.501Z,83.31
2018-12-21T23:06:57.490Z,83.70
2018-12-21T23:12:00.605Z,83.35
2018-12-21T23:17:03.753Z,82.00
2018-12-21T23:22:08.008Z,82.20
2018-12-21T23:27:11.137Z,81.24
2018-12-21T23:32:14.104Z,81.43
2018-12-21T23:37:17.149Z,81.22
2018-12-21T23:42:20.291Z,81.75
2018-12-21T23:47:23.362Z,80.49
2018-12-21T23:52:26.384Z,80.03
2018-12-21T23:57:29.396Z,80.17
